sensor_id;sensor_type;location;lat;lon;timestamp;P1;durP1;ratioP1;P2;durP2;ratioP2
3795;SDS011;1913;50.660;7.834;2023-11-19T00:00:09;3.17;;;2.87;;
3795;SDS011;1913;50.660;7.834;2023-11-19T00:02:38;3.40;;;3.10;;
3795;SDS011;1913;50.660;7.834;2023-11-19T00:05:04;2.93;;;2.73;;
3795;SDS011;1913;50.660;7.834;2023-11-19T00:07:33;2.77;;;2.57;;
3795;SDS011;1913;50.660;7.834;2023-11-19T00:09:59;3.33;;;3.03;;
3795;SDS011;1913;50.660;7.834;2023-11-19T00:12:32;3.90;;;3.20;;
3795;SDS011;1913;50.660;7.834;2023-11-19T00:14:57;3.27;;;2.97;;
3795;SDS011;1913;50.660;7.834;2023-11-19T00:17:22;3.23;;;2.80;;
3795;SDS011;1913;50.660;7.834;2023-11-19T00:19:48;3.13;;;2.83;;
3795;SDS011;1913;50.660;7.834;2023-11-19T00:22:16;2.60;;;2.40;;
3795;SDS011;1913;50.660;7.834;2023-11-19T00:24:41;2.57;;;2.37;;
3795;SDS011;1913;50.660;7.834;2023-11-19T00:27:06;2.77;;;2.57;;
3795;SDS011;1913;50.660;7.834;2023-11-19T00:29:32;2.60;;;2.40;;
3795;SDS011;1913;50.660;7.834;2023-11-19T00:31:58;2.53;;;2.27;;
3795;SDS011;1913;50.660;7.834;2023-11-19T00:34:23;2.50;;;2.30;;
3795;SDS011;1913;50.660;7.834;2023-11-19T00:36:48;3.00;;;2.20;;
3795;SDS011;1913;50.660;7.834;2023-11-19T00:39:14;2.67;;;2.47;;
3795;SDS011;1913;50.660;7.834;2023-11-19T00:41:40;3.80;;;2.47;;
3795;SDS011;1913;50.660;7.834;2023-11-19T00:44:06;2.60;;;2.40;;
3795;SDS011;1913;50.660;7.834;2023-11-19T00:46:31;2.80;;;2.23;;
3795;SDS011;1913;50.660;7.834;2023-11-19T00:48:57;4.63;;;2.57;;
3795;SDS011;1913;50.660;7.834;2023-11-19T00:51:24;4.30;;;2.77;;
3795;SDS011;1913;50.660;7.834;2023-11-19T00:53:51;3.00;;;2.70;;
3795;SDS011;1913;50.660;7.834;2023-11-19T00:56:17;3.03;;;2.83;;
3795;SDS011;1913;50.660;7.834;2023-11-19T00:58:44;4.70;;;2.60;;
3795;SDS011;1913;50.660;7.834;2023-11-19T01:01:11;2.80;;;2.60;;
3795;SDS011;1913;50.660;7.834;2023-11-19T01:03:36;2.87;;;2.50;;
3795;SDS011;1913;50.660;7.834;2023-11-19T01:06:02;2.53;;;2.33;;
3795;SDS011;1913;50.660;7.834;2023-11-19T01:08:28;4.13;;;2.70;;
3795;SDS011;1913;50.660;7.834;2023-11-19T01:10:53;2.40;;;2.20;;
3795;SDS011;1913;50.660;7.834;2023-11-19T01:13:18;4.80;;;2.67;;
3795;SDS011;1913;50.660;7.834;2023-11-19T01:15:44;2.73;;;2.53;;
3795;SDS011;1913;50.660;7.834;2023-11-19T01:18:09;2.50;;;2.30;;
3795;SDS011;1913;50.660;7.834;2023-11-19T01:20:34;2.40;;;2.20;;
3795;SDS011;1913;50.660;7.834;2023-11-19T01:23:00;2.53;;;2.33;;
3795;SDS011;1913;50.660;7.834;2023-11-19T01:25:25;2.60;;;2.40;;
3795;SDS011;1913;50.660;7.834;2023-11-19T01:27:50;2.40;;;2.20;;
3795;SDS011;1913;50.660;7.834;2023-11-19T01:30:16;2.77;;;2.40;;
3795;SDS011;1913;50.660;7.834;2023-11-19T01:32:41;5.47;;;2.20;;
3795;SDS011;1913;50.660;7.834;2023-11-19T01:35:06;2.23;;;2.03;;
3795;SDS011;1913;50.660;7.834;2023-11-19T01:37:33;3.00;;;2.23;;
3795;SDS011;1913;50.660;7.834;2023-11-19T01:39:59;2.20;;;2.10;;
3795;SDS011;1913;50.660;7.834;2023-11-19T01:42:25;3.03;;;1.77;;
3795;SDS011;1913;50.660;7.834;2023-11-19T01:44:57;3.80;;;2.30;;
3795;SDS011;1913;50.660;7.834;2023-11-19T01:47:23;3.00;;;2.20;;
3795;SDS011;1913;50.660;7.834;2023-11-19T01:49:50;2.40;;;2.10;;
3795;SDS011;1913;50.660;7.834;2023-11-19T01:52:16;2.60;;;2.23;;
3795;SDS011;1913;50.660;7.834;2023-11-19T01:54:42;2.37;;;2.17;;
3795;SDS011;1913;50.660;7.834;2023-11-19T01:57:07;2.37;;;2.03;;
3795;SDS011;1913;50.660;7.834;2023-11-19T01:59:34;2.43;;;2.23;;
3795;SDS011;1913;50.660;7.834;2023-11-19T02:01:59;2.87;;;1.80;;
3795;SDS011;1913;50.660;7.834;2023-11-19T02:04:25;2.20;;;2.00;;
3795;SDS011;1913;50.660;7.834;2023-11-19T02:06:51;2.20;;;2.00;;
3795;SDS011;1913;50.660;7.834;2023-11-19T02:09:21;1.90;;;1.80;;
3795;SDS011;1913;50.660;7.834;2023-11-19T02:11:46;1.70;;;1.60;;
3795;SDS011;1913;50.660;7.834;2023-11-19T02:14:16;1.73;;;1.60;;
3795;SDS011;1913;50.660;7.834;2023-11-19T02:16:42;1.73;;;1.50;;
3795;SDS011;1913;50.660;7.834;2023-11-19T02:19:08;1.30;;;1.20;;
3795;SDS011;1913;50.660;7.834;2023-11-19T02:21:35;1.30;;;1.20;;
3795;SDS011;1913;50.660;7.834;2023-11-19T02:24:02;1.80;;;1.70;;
3795;SDS011;1913;50.660;7.834;2023-11-19T02:26:50;1.70;;;1.30;;
3795;SDS011;1913;50.660;7.834;2023-11-19T02:29:24;1.53;;;1.43;;
3795;SDS011;1913;50.660;7.834;2023-11-19T02:31:49;1.67;;;1.57;;
3795;SDS011;1913;50.660;7.834;2023-11-19T02:34:14;1.70;;;1.60;;
3795;SDS011;1913;50.660;7.834;2023-11-19T02:36:41;2.80;;;1.90;;
3795;SDS011;1913;50.660;7.834;2023-11-19T02:39:07;4.50;;;2.10;;
3795;SDS011;1913;50.660;7.834;2023-11-19T02:41:36;1.87;;;1.77;;
3795;SDS011;1913;50.660;7.834;2023-11-19T02:44:01;2.57;;;2.37;;
3795;SDS011;1913;50.660;7.834;2023-11-19T02:46:26;3.80;;;1.73;;
3795;SDS011;1913;50.660;7.834;2023-11-19T02:48:52;2.07;;;1.63;;
3795;SDS011;1913;50.660;7.834;2023-11-19T02:51:17;1.47;;;1.37;;
3795;SDS011;1913;50.660;7.834;2023-11-19T02:53:43;2.50;;;1.63;;
3795;SDS011;1913;50.660;7.834;2023-11-19T02:56:13;1.50;;;1.40;;
3795;SDS011;1913;50.660;7.834;2023-11-19T02:58:50;1.70;;;1.60;;
3795;SDS011;1913;50.660;7.834;2023-11-19T03:01:21;1.50;;;1.40;;
3795;SDS011;1913;50.660;7.834;2023-11-19T03:03:58;4.40;;;1.30;;
3795;SDS011;1913;50.660;7.834;2023-11-19T03:06:26;2.07;;;1.50;;
3795;SDS011;1913;50.660;7.834;2023-11-19T03:08:52;1.57;;;1.47;;
3795;SDS011;1913;50.660;7.834;2023-11-19T03:11:17;1.53;;;1.10;;
3795;SDS011;1913;50.660;7.834;2023-11-19T03:13:43;1.63;;;1.37;;
3795;SDS011;1913;50.660;7.834;2023-11-19T03:16:08;4.90;;;1.43;;
3795;SDS011;1913;50.660;7.834;2023-11-19T03:18:33;2.40;;;1.70;;
3795;SDS011;1913;50.660;7.834;2023-11-19T03:20:59;1.40;;;1.30;;
3795;SDS011;1913;50.660;7.834;2023-11-19T03:23:24;2.50;;;1.40;;
3795;SDS011;1913;50.660;7.834;2023-11-19T03:25:52;1.43;;;1.33;;
3795;SDS011;1913;50.660;7.834;2023-11-19T03:28:18;2.87;;;2.10;;
3795;SDS011;1913;50.660;7.834;2023-11-19T03:30:43;4.73;;;1.43;;
3795;SDS011;1913;50.660;7.834;2023-11-19T03:33:08;1.90;;;1.33;;
3795;SDS011;1913;50.660;7.834;2023-11-19T03:35:34;2.60;;;1.30;;
3795;SDS011;1913;50.660;7.834;2023-11-19T03:37:59;2.63;;;1.70;;
3795;SDS011;1913;50.660;7.834;2023-11-19T03:40:24;4.20;;;1.60;;
3795;SDS011;1913;50.660;7.834;2023-11-19T03:42:50;1.73;;;1.63;;
3795;SDS011;1913;50.660;7.834;2023-11-19T03:45:15;2.10;;;1.90;;
3795;SDS011;1913;50.660;7.834;2023-11-19T03:47:41;3.47;;;1.70;;
3795;SDS011;1913;50.660;7.834;2023-11-19T03:50:06;2.20;;;1.60;;
3795;SDS011;1913;50.660;7.834;2023-11-19T03:52:33;2.27;;;1.80;;
3795;SDS011;1913;50.660;7.834;2023-11-19T03:54:58;2.47;;;1.60;;
3795;SDS011;1913;50.660;7.834;2023-11-19T03:57:24;1.80;;;1.47;;
3795;SDS011;1913;50.660;7.834;2023-11-19T03:59:49;2.47;;;1.30;;
3795;SDS011;1913;50.660;7.834;2023-11-19T04:02:14;2.00;;;1.30;;
3795;SDS011;1913;50.660;7.834;2023-11-19T04:04:40;1.60;;;1.50;;
3795;SDS011;1913;50.660;7.834;2023-11-19T04:07:05;2.43;;;1.13;;
3795;SDS011;1913;50.660;7.834;2023-11-19T04:09:31;2.73;;;1.53;;
3795;SDS011;1913;50.660;7.834;2023-11-19T04:11:59;3.50;;;1.37;;
3795;SDS011;1913;50.660;7.834;2023-11-19T04:14:25;2.90;;;1.30;;
3795;SDS011;1913;50.660;7.834;2023-11-19T04:16:50;5.63;;;1.37;;
3795;SDS011;1913;50.660;7.834;2023-11-19T04:19:16;3.20;;;1.40;;
3795;SDS011;1913;50.660;7.834;2023-11-19T04:21:42;1.87;;;1.20;;
3795;SDS011;1913;50.660;7.834;2023-11-19T04:24:08;2.30;;;1.20;;
3795;SDS011;1913;50.660;7.834;2023-11-19T04:26:39;3.10;;;1.53;;
3795;SDS011;1913;50.660;7.834;2023-11-19T04:29:05;2.50;;;1.10;;
3795;SDS011;1913;50.660;7.834;2023-11-19T04:31:31;2.17;;;1.27;;
3795;SDS011;1913;50.660;7.834;2023-11-19T04:33:56;6.93;;;1.27;;
3795;SDS011;1913;50.660;7.834;2023-11-19T04:36:21;2.67;;;1.30;;
3795;SDS011;1913;50.660;7.834;2023-11-19T04:38:49;2.80;;;1.17;;
3795;SDS011;1913;50.660;7.834;2023-11-19T04:41:14;3.33;;;1.30;;
3795;SDS011;1913;50.660;7.834;2023-11-19T04:43:40;3.40;;;1.40;;
3795;SDS011;1913;50.660;7.834;2023-11-19T04:46:05;2.60;;;1.00;;
3795;SDS011;1913;50.660;7.834;2023-11-19T04:48:31;2.90;;;1.47;;
3795;SDS011;1913;50.660;7.834;2023-11-19T04:50:56;2.97;;;1.27;;
3795;SDS011;1913;50.660;7.834;2023-11-19T04:53:21;4.30;;;1.50;;
3795;SDS011;1913;50.660;7.834;2023-11-19T04:55:46;1.73;;;1.37;;
3795;SDS011;1913;50.660;7.834;2023-11-19T04:58:12;5.63;;;1.40;;
3795;SDS011;1913;50.660;7.834;2023-11-19T05:00:37;1.23;;;1.10;;
3795;SDS011;1913;50.660;7.834;2023-11-19T05:03:03;1.57;;;1.20;;
3795;SDS011;1913;50.660;7.834;2023-11-19T05:05:28;7.93;;;1.30;;
3795;SDS011;1913;50.660;7.834;2023-11-19T05:07:55;5.03;;;1.43;;
3795;SDS011;1913;50.660;7.834;2023-11-19T05:10:20;4.20;;;1.30;;
3795;SDS011;1913;50.660;7.834;2023-11-19T05:12:45;8.37;;;1.50;;
3795;SDS011;1913;50.660;7.834;2023-11-19T05:15:11;1.73;;;1.13;;
3795;SDS011;1913;50.660;7.834;2023-11-19T05:17:37;2.80;;;1.30;;
3795;SDS011;1913;50.660;7.834;2023-11-19T05:20:04;3.27;;;1.23;;
3795;SDS011;1913;50.660;7.834;2023-11-19T05:22:29;7.90;;;1.40;;
3795;SDS011;1913;50.660;7.834;2023-11-19T05:24:55;1.20;;;1.10;;
3795;SDS011;1913;50.660;7.834;2023-11-19T05:27:21;4.83;;;1.40;;
3795;SDS011;1913;50.660;7.834;2023-11-19T05:29:47;3.93;;;1.60;;
3795;SDS011;1913;50.660;7.834;2023-11-19T05:32:12;2.93;;;1.10;;
3795;SDS011;1913;50.660;7.834;2023-11-19T05:34:37;4.37;;;1.43;;
3795;SDS011;1913;50.660;7.834;2023-11-19T05:37:02;3.10;;;1.20;;
3795;SDS011;1913;50.660;7.834;2023-11-19T05:39:30;4.73;;;1.60;;
3795;SDS011;1913;50.660;7.834;2023-11-19T05:41:55;3.20;;;1.30;;
3795;SDS011;1913;50.660;7.834;2023-11-19T05:44:21;3.70;;;1.50;;
3795;SDS011;1913;50.660;7.834;2023-11-19T05:46:46;6.17;;;1.70;;
3795;SDS011;1913;50.660;7.834;2023-11-19T05:49:11;3.33;;;1.23;;
3795;SDS011;1913;50.660;7.834;2023-11-19T05:51:38;6.97;;;1.50;;
3795;SDS011;1913;50.660;7.834;2023-11-19T05:54:04;5.70;;;1.40;;
3795;SDS011;1913;50.660;7.834;2023-11-19T05:56:33;4.87;;;1.60;;
3795;SDS011;1913;50.660;7.834;2023-11-19T05:58:59;5.53;;;1.80;;
3795;SDS011;1913;50.660;7.834;2023-11-19T06:01:29;7.07;;;1.70;;
3795;SDS011;1913;50.660;7.834;2023-11-19T06:03:54;4.27;;;1.40;;
3795;SDS011;1913;50.660;7.834;2023-11-19T06:06:20;6.03;;;2.03;;
3795;SDS011;1913;50.660;7.834;2023-11-19T06:08:45;5.47;;;1.33;;
3795;SDS011;1913;50.660;7.834;2023-11-19T06:11:11;3.27;;;1.77;;
3795;SDS011;1913;50.660;7.834;2023-11-19T06:13:40;6.27;;;1.70;;
3795;SDS011;1913;50.660;7.834;2023-11-19T06:16:05;8.03;;;1.90;;
3795;SDS011;1913;50.660;7.834;2023-11-19T06:18:31;6.30;;;1.53;;
3795;SDS011;1913;50.660;7.834;2023-11-19T06:20:56;5.43;;;1.70;;
3795;SDS011;1913;50.660;7.834;2023-11-19T06:23:21;10.00;;;2.13;;
3795;SDS011;1913;50.660;7.834;2023-11-19T06:25:47;6.47;;;1.60;;
3795;SDS011;1913;50.660;7.834;2023-11-19T06:28:12;8.77;;;2.47;;
3795;SDS011;1913;50.660;7.834;2023-11-19T06:30:38;4.30;;;2.00;;
3795;SDS011;1913;50.660;7.834;2023-11-19T06:33:04;10.87;;;1.80;;
3795;SDS011;1913;50.660;7.834;2023-11-19T06:35:29;7.53;;;2.10;;
3795;SDS011;1913;50.660;7.834;2023-11-19T06:38:01;9.33;;;1.90;;
3795;SDS011;1913;50.660;7.834;2023-11-19T06:40:26;4.93;;;1.87;;
3795;SDS011;1913;50.660;7.834;2023-11-19T06:42:52;7.80;;;1.97;;
3795;SDS011;1913;50.660;7.834;2023-11-19T06:45:17;12.27;;;2.03;;
3795;SDS011;1913;50.660;7.834;2023-11-19T06:47:42;6.57;;;1.90;;
3795;SDS011;1913;50.660;7.834;2023-11-19T06:50:08;6.87;;;2.53;;
3795;SDS011;1913;50.660;7.834;2023-11-19T06:52:34;8.53;;;2.10;;
3795;SDS011;1913;50.660;7.834;2023-11-19T06:54:59;9.40;;;2.33;;
3795;SDS011;1913;50.660;7.834;2023-11-19T06:57:25;10.63;;;2.17;;
3795;SDS011;1913;50.660;7.834;2023-11-19T06:59:50;13.00;;;2.20;;
3795;SDS011;1913;50.660;7.834;2023-11-19T07:02:16;10.37;;;2.80;;
3795;SDS011;1913;50.660;7.834;2023-11-19T07:04:41;16.13;;;2.80;;
3795;SDS011;1913;50.660;7.834;2023-11-19T07:07:07;11.17;;;1.97;;
3795;SDS011;1913;50.660;7.834;2023-11-19T07:09:32;7.10;;;1.90;;
3795;SDS011;1913;50.660;7.834;2023-11-19T07:11:58;8.53;;;2.30;;
3795;SDS011;1913;50.660;7.834;2023-11-19T07:14:25;9.47;;;2.50;;
3795;SDS011;1913;50.660;7.834;2023-11-19T07:16:50;11.17;;;2.70;;
3795;SDS011;1913;50.660;7.834;2023-11-19T07:19:15;12.10;;;2.90;;
3795;SDS011;1913;50.660;7.834;2023-11-19T07:21:41;11.77;;;2.67;;
3795;SDS011;1913;50.660;7.834;2023-11-19T07:24:09;12.50;;;2.77;;
3795;SDS011;1913;50.660;7.834;2023-11-19T07:26:34;6.70;;;2.20;;
3795;SDS011;1913;50.660;7.834;2023-11-19T07:29:00;10.77;;;2.60;;
3795;SDS011;1913;50.660;7.834;2023-11-19T07:31:26;12.33;;;3.20;;
3795;SDS011;1913;50.660;7.834;2023-11-19T07:33:52;7.30;;;2.50;;
3795;SDS011;1913;50.660;7.834;2023-11-19T07:36:18;8.70;;;2.90;;
3795;SDS011;1913;50.660;7.834;2023-11-19T07:38:45;8.10;;;2.40;;
3795;SDS011;1913;50.660;7.834;2023-11-19T07:41:11;9.53;;;2.27;;
3795;SDS011;1913;50.660;7.834;2023-11-19T07:43:43;15.07;;;2.40;;
3795;SDS011;1913;50.660;7.834;2023-11-19T07:46:12;8.87;;;2.00;;
3795;SDS011;1913;50.660;7.834;2023-11-19T07:48:41;10.00;;;2.80;;
3795;SDS011;1913;50.660;7.834;2023-11-19T07:51:07;12.87;;;2.67;;
3795;SDS011;1913;50.660;7.834;2023-11-19T07:53:33;12.63;;;2.80;;
3795;SDS011;1913;50.660;7.834;2023-11-19T07:55:59;13.70;;;2.60;;
3795;SDS011;1913;50.660;7.834;2023-11-19T07:58:25;10.90;;;3.00;;
3795;SDS011;1913;50.660;7.834;2023-11-19T08:00:50;12.40;;;3.10;;
3795;SDS011;1913;50.660;7.834;2023-11-19T08:03:17;9.70;;;2.90;;
3795;SDS011;1913;50.660;7.834;2023-11-19T08:05:43;12.10;;;2.63;;
3795;SDS011;1913;50.660;7.834;2023-11-19T08:08:09;13.93;;;2.90;;
3795;SDS011;1913;50.660;7.834;2023-11-19T08:10:35;18.70;;;3.20;;
3795;SDS011;1913;50.660;7.834;2023-11-19T08:13:00;16.07;;;3.83;;
3795;SDS011;1913;50.660;7.834;2023-11-19T08:15:27;6.63;;;2.20;;
3795;SDS011;1913;50.660;7.834;2023-11-19T08:17:52;15.00;;;3.37;;
3795;SDS011;1913;50.660;7.834;2023-11-19T08:20:18;12.80;;;2.90;;
3795;SDS011;1913;50.660;7.834;2023-11-19T08:22:43;14.97;;;2.63;;
3795;SDS011;1913;50.660;7.834;2023-11-19T08:25:09;11.43;;;2.80;;
3795;SDS011;1913;50.660;7.834;2023-11-19T08:27:34;14.43;;;2.50;;
3795;SDS011;1913;50.660;7.834;2023-11-19T08:29:59;11.60;;;3.00;;
3795;SDS011;1913;50.660;7.834;2023-11-19T08:32:27;11.60;;;2.70;;
3795;SDS011;1913;50.660;7.834;2023-11-19T08:34:53;12.90;;;3.57;;
3795;SDS011;1913;50.660;7.834;2023-11-19T08:37:19;13.70;;;3.33;;
3795;SDS011;1913;50.660;7.834;2023-11-19T08:39:49;12.57;;;3.80;;
3795;SDS011;1913;50.660;7.834;2023-11-19T08:42:15;9.20;;;2.73;;
3795;SDS011;1913;50.660;7.834;2023-11-19T08:44:42;11.50;;;2.77;;
3795;SDS011;1913;50.660;7.834;2023-11-19T08:47:09;15.30;;;3.03;;
3795;SDS011;1913;50.660;7.834;2023-11-19T08:49:35;17.13;;;3.00;;
3795;SDS011;1913;50.660;7.834;2023-11-19T08:52:01;15.40;;;3.90;;
3795;SDS011;1913;50.660;7.834;2023-11-19T08:54:26;18.97;;;3.70;;
3795;SDS011;1913;50.660;7.834;2023-11-19T08:56:52;10.07;;;3.20;;
3795;SDS011;1913;50.660;7.834;2023-11-19T08:59:18;24.37;;;4.50;;
3795;SDS011;1913;50.660;7.834;2023-11-19T09:01:44;12.30;;;3.50;;
3795;SDS011;1913;50.660;7.834;2023-11-19T09:04:10;25.30;;;4.07;;
3795;SDS011;1913;50.660;7.834;2023-11-19T09:06:39;11.20;;;2.90;;
3795;SDS011;1913;50.660;7.834;2023-11-19T09:09:14;17.30;;;3.40;;
3795;SDS011;1913;50.660;7.834;2023-11-19T09:11:40;15.27;;;3.23;;
3795;SDS011;1913;50.660;7.834;2023-11-19T09:14:07;19.50;;;3.60;;
3795;SDS011;1913;50.660;7.834;2023-11-19T09:16:41;15.83;;;3.57;;
3795;SDS011;1913;50.660;7.834;2023-11-19T09:19:07;17.90;;;4.20;;
3795;SDS011;1913;50.660;7.834;2023-11-19T09:21:34;23.30;;;4.40;;
3795;SDS011;1913;50.660;7.834;2023-11-19T09:24:03;23.47;;;3.93;;
3795;SDS011;1913;50.660;7.834;2023-11-19T09:26:29;19.37;;;3.80;;
3795;SDS011;1913;50.660;7.834;2023-11-19T09:28:55;17.10;;;3.83;;
3795;SDS011;1913;50.660;7.834;2023-11-19T09:31:20;16.40;;;4.00;;
3795;SDS011;1913;50.660;7.834;2023-11-19T09:33:46;17.57;;;3.77;;
3795;SDS011;1913;50.660;7.834;2023-11-19T09:36:14;18.37;;;3.73;;
3795;SDS011;1913;50.660;7.834;2023-11-19T09:38:41;22.20;;;4.33;;
3795;SDS011;1913;50.660;7.834;2023-11-19T09:41:07;17.40;;;3.70;;
3795;SDS011;1913;50.660;7.834;2023-11-19T09:43:33;18.97;;;3.70;;
3795;SDS011;1913;50.660;7.834;2023-11-19T09:46:02;18.13;;;3.83;;
3795;SDS011;1913;50.660;7.834;2023-11-19T09:48:32;22.33;;;4.20;;
3795;SDS011;1913;50.660;7.834;2023-11-19T09:50:58;19.10;;;4.33;;
3795;SDS011;1913;50.660;7.834;2023-11-19T09:53:24;21.53;;;4.23;;
3795;SDS011;1913;50.660;7.834;2023-11-19T09:55:51;19.13;;;4.30;;
3795;SDS011;1913;50.660;7.834;2023-11-19T09:58:17;16.57;;;3.93;;
3795;SDS011;1913;50.660;7.834;2023-11-19T10:00:43;16.70;;;4.03;;
3795;SDS011;1913;50.660;7.834;2023-11-19T10:03:09;29.07;;;5.40;;
3795;SDS011;1913;50.660;7.834;2023-11-19T10:05:37;17.33;;;3.90;;
3795;SDS011;1913;50.660;7.834;2023-11-19T10:08:04;20.53;;;4.50;;
3795;SDS011;1913;50.660;7.834;2023-11-19T10:10:29;23.57;;;4.23;;
3795;SDS011;1913;50.660;7.834;2023-11-19T10:12:55;17.07;;;3.60;;
3795;SDS011;1913;50.660;7.834;2023-11-19T10:15:21;23.97;;;4.10;;
3795;SDS011;1913;50.660;7.834;2023-11-19T10:17:51;18.87;;;3.80;;
3795;SDS011;1913;50.660;7.834;2023-11-19T10:20:19;16.40;;;4.00;;
3795;SDS011;1913;50.660;7.834;2023-11-19T10:22:45;21.07;;;4.10;;
3795;SDS011;1913;50.660;7.834;2023-11-19T10:25:23;17.57;;;3.83;;
3795;SDS011;1913;50.660;7.834;2023-11-19T10:27:50;20.90;;;4.50;;
3795;SDS011;1913;50.660;7.834;2023-11-19T10:30:26;33.70;;;4.90;;
3795;SDS011;1913;50.660;7.834;2023-11-19T10:33:08;19.73;;;4.10;;
3795;SDS011;1913;50.660;7.834;2023-11-19T10:35:51;17.97;;;4.13;;
3795;SDS011;1913;50.660;7.834;2023-11-19T10:38:27;25.37;;;5.03;;
3795;SDS011;1913;50.660;7.834;2023-11-19T10:40:53;28.13;;;4.30;;
3795;SDS011;1913;50.660;7.834;2023-11-19T10:43:20;20.93;;;3.93;;
3795;SDS011;1913;50.660;7.834;2023-11-19T10:45:48;19.13;;;3.97;;
3795;SDS011;1913;50.660;7.834;2023-11-19T10:48:13;18.23;;;3.97;;
3795;SDS011;1913;50.660;7.834;2023-11-19T10:50:40;16.00;;;4.20;;
3795;SDS011;1913;50.660;7.834;2023-11-19T10:53:07;19.83;;;4.20;;
3795;SDS011;1913;50.660;7.834;2023-11-19T10:55:34;20.00;;;3.97;;
3795;SDS011;1913;50.660;7.834;2023-11-19T10:58:03;15.63;;;3.97;;
3795;SDS011;1913;50.660;7.834;2023-11-19T11:00:45;14.97;;;3.30;;
3795;SDS011;1913;50.660;7.834;2023-11-19T11:03:17;20.07;;;4.20;;
3795;SDS011;1913;50.660;7.834;2023-11-19T11:05:46;21.27;;;4.30;;
3795;SDS011;1913;50.660;7.834;2023-11-19T11:08:12;24.77;;;4.30;;
3795;SDS011;1913;50.660;7.834;2023-11-19T11:10:50;21.10;;;4.60;;
3795;SDS011;1913;50.660;7.834;2023-11-19T11:13:18;24.10;;;4.70;;
3795;SDS011;1913;50.660;7.834;2023-11-19T11:15:44;23.80;;;4.80;;
3795;SDS011;1913;50.660;7.834;2023-11-19T11:18:11;23.27;;;3.53;;
3795;SDS011;1913;50.660;7.834;2023-11-19T11:20:38;27.60;;;4.03;;
3795;SDS011;1913;50.660;7.834;2023-11-19T11:25:52;21.50;;;3.90;;
3795;SDS011;1913;50.660;7.834;2023-11-19T11:36:24;22.00;;;4.10;;
3795;SDS011;1913;50.660;7.834;2023-11-19T11:38:50;26.87;;;4.50;;
3795;SDS011;1913;50.660;7.834;2023-11-19T11:41:16;24.23;;;4.00;;
3795;SDS011;1913;50.660;7.834;2023-11-19T11:43:46;20.93;;;4.30;;
3795;SDS011;1913;50.660;7.834;2023-11-19T11:48:57;25.53;;;3.93;;
3795;SDS011;1913;50.660;7.834;2023-11-19T11:57:01;23.20;;;4.73;;
3795;SDS011;1913;50.660;7.834;2023-11-19T11:59:42;21.67;;;4.30;;
3795;SDS011;1913;50.660;7.834;2023-11-19T12:02:19;22.90;;;4.20;;
3795;SDS011;1913;50.660;7.834;2023-11-19T12:04:47;22.53;;;4.10;;
3795;SDS011;1913;50.660;7.834;2023-11-19T12:07:25;25.10;;;4.93;;
3795;SDS011;1913;50.660;7.834;2023-11-19T12:09:52;22.40;;;5.00;;
3795;SDS011;1913;50.660;7.834;2023-11-19T12:12:20;17.93;;;3.87;;
3795;SDS011;1913;50.660;7.834;2023-11-19T12:17:35;17.97;;;3.60;;
3795;SDS011;1913;50.660;7.834;2023-11-19T12:20:07;20.13;;;4.33;;
3795;SDS011;1913;50.660;7.834;2023-11-19T12:22:39;21.13;;;4.50;;
3795;SDS011;1913;50.660;7.834;2023-11-19T12:25:07;20.17;;;4.60;;
3795;SDS011;1913;50.660;7.834;2023-11-19T12:27:34;15.10;;;3.60;;
3795;SDS011;1913;50.660;7.834;2023-11-19T12:30:00;22.20;;;4.07;;
3795;SDS011;1913;50.660;7.834;2023-11-19T12:32:37;20.30;;;4.30;;
3795;SDS011;1913;50.660;7.834;2023-11-19T12:35:03;14.90;;;3.90;;
3795;SDS011;1913;50.660;7.834;2023-11-19T12:37:29;27.13;;;4.00;;
3795;SDS011;1913;50.660;7.834;2023-11-19T12:39:57;19.63;;;3.77;;
3795;SDS011;1913;50.660;7.834;2023-11-19T12:42:36;18.03;;;4.40;;
3795;SDS011;1913;50.660;7.834;2023-11-19T12:45:02;25.30;;;4.90;;
3795;SDS011;1913;50.660;7.834;2023-11-19T12:47:28;23.80;;;4.63;;
3795;SDS011;1913;50.660;7.834;2023-11-19T12:49:56;28.77;;;5.20;;
3795;SDS011;1913;50.660;7.834;2023-11-19T12:52:22;27.63;;;5.37;;
3795;SDS011;1913;50.660;7.834;2023-11-19T12:54:48;18.90;;;4.37;;
3795;SDS011;1913;50.660;7.834;2023-11-19T12:57:14;31.23;;;4.40;;
3795;SDS011;1913;50.660;7.834;2023-11-19T12:59:40;32.47;;;5.43;;
3795;SDS011;1913;50.660;7.834;2023-11-19T13:02:05;15.93;;;4.13;;
3795;SDS011;1913;50.660;7.834;2023-11-19T13:04:31;25.67;;;5.33;;
3795;SDS011;1913;50.660;7.834;2023-11-19T13:06:58;24.77;;;4.90;;
3795;SDS011;1913;50.660;7.834;2023-11-19T13:09:24;17.83;;;4.47;;
3795;SDS011;1913;50.660;7.834;2023-11-19T13:11:51;31.20;;;5.20;;
3795;SDS011;1913;50.660;7.834;2023-11-19T13:14:17;26.73;;;5.97;;
3795;SDS011;1913;50.660;7.834;2023-11-19T13:16:44;27.17;;;4.93;;
3795;SDS011;1913;50.660;7.834;2023-11-19T13:19:11;29.63;;;4.90;;
3795;SDS011;1913;50.660;7.834;2023-11-19T13:21:37;15.93;;;4.30;;
3795;SDS011;1913;50.660;7.834;2023-11-19T13:24:03;23.00;;;4.40;;
3795;SDS011;1913;50.660;7.834;2023-11-19T13:26:29;20.40;;;3.70;;
3795;SDS011;1913;50.660;7.834;2023-11-19T13:28:54;28.63;;;4.97;;
3795;SDS011;1913;50.660;7.834;2023-11-19T13:31:20;22.43;;;4.60;;
3795;SDS011;1913;50.660;7.834;2023-11-19T13:33:45;23.93;;;4.83;;
3795;SDS011;1913;50.660;7.834;2023-11-19T13:36:10;33.43;;;5.70;;
3795;SDS011;1913;50.660;7.834;2023-11-19T13:38:36;31.87;;;5.00;;
3795;SDS011;1913;50.660;7.834;2023-11-19T13:41:02;17.63;;;3.87;;
3795;SDS011;1913;50.660;7.834;2023-11-19T13:43:29;24.83;;;4.90;;
3795;SDS011;1913;50.660;7.834;2023-11-19T13:45:55;27.70;;;5.10;;
3795;SDS011;1913;50.660;7.834;2023-11-19T13:48:21;22.93;;;4.57;;
3795;SDS011;1913;50.660;7.834;2023-11-19T13:50:46;31.23;;;5.20;;
3795;SDS011;1913;50.660;7.834;2023-11-19T13:53:11;20.47;;;4.20;;
3795;SDS011;1913;50.660;7.834;2023-11-19T13:55:37;17.90;;;4.47;;
3795;SDS011;1913;50.660;7.834;2023-11-19T13:58:03;30.10;;;5.47;;
3795;SDS011;1913;50.660;7.834;2023-11-19T14:00:28;22.73;;;4.50;;
3795;SDS011;1913;50.660;7.834;2023-11-19T14:02:54;27.87;;;5.70;;
3795;SDS011;1913;50.660;7.834;2023-11-19T14:05:19;26.60;;;5.27;;
3795;SDS011;1913;50.660;7.834;2023-11-19T14:07:45;19.63;;;5.20;;
3795;SDS011;1913;50.660;7.834;2023-11-19T14:10:13;22.93;;;4.10;;
3795;SDS011;1913;50.660;7.834;2023-11-19T14:12:40;19.70;;;4.77;;
3795;SDS011;1913;50.660;7.834;2023-11-19T14:15:09;31.30;;;5.23;;
3795;SDS011;1913;50.660;7.834;2023-11-19T14:17:38;21.30;;;4.83;;
3795;SDS011;1913;50.660;7.834;2023-11-19T14:20:04;24.03;;;4.63;;
3795;SDS011;1913;50.660;7.834;2023-11-19T14:22:40;22.23;;;4.70;;
3795;SDS011;1913;50.660;7.834;2023-11-19T14:25:09;22.63;;;5.23;;
3795;SDS011;1913;50.660;7.834;2023-11-19T14:27:37;25.90;;;5.17;;
3795;SDS011;1913;50.660;7.834;2023-11-19T14:30:06;27.17;;;5.57;;
3795;SDS011;1913;50.660;7.834;2023-11-19T14:32:36;33.00;;;7.63;;
3795;SDS011;1913;50.660;7.834;2023-11-19T14:35:02;26.50;;;6.27;;
3795;SDS011;1913;50.660;7.834;2023-11-19T14:37:28;26.93;;;5.27;;
3795;SDS011;1913;50.660;7.834;2023-11-19T14:39:55;28.43;;;5.97;;
3795;SDS011;1913;50.660;7.834;2023-11-19T14:42:20;28.43;;;5.80;;
3795;SDS011;1913;50.660;7.834;2023-11-19T14:44:46;24.70;;;4.90;;
3795;SDS011;1913;50.660;7.834;2023-11-19T14:47:11;19.97;;;4.83;;
3795;SDS011;1913;50.660;7.834;2023-11-19T14:49:36;25.97;;;5.03;;
3795;SDS011;1913;50.660;7.834;2023-11-19T14:52:02;19.80;;;4.50;;
3795;SDS011;1913;50.660;7.834;2023-11-19T14:54:31;30.83;;;5.73;;
3795;SDS011;1913;50.660;7.834;2023-11-19T14:56:56;20.23;;;4.60;;
3795;SDS011;1913;50.660;7.834;2023-11-19T14:59:22;14.43;;;4.20;;
3795;SDS011;1913;50.660;7.834;2023-11-19T15:01:48;27.00;;;4.30;;
3795;SDS011;1913;50.660;7.834;2023-11-19T15:04:14;18.83;;;3.67;;
3795;SDS011;1913;50.660;7.834;2023-11-19T15:06:42;21.57;;;4.50;;
3795;SDS011;1913;50.660;7.834;2023-11-19T15:09:07;17.97;;;4.17;;
3795;SDS011;1913;50.660;7.834;2023-11-19T15:11:33;24.77;;;3.90;;
3795;SDS011;1913;50.660;7.834;2023-11-19T15:13:58;24.80;;;4.80;;
3795;SDS011;1913;50.660;7.834;2023-11-19T15:16:24;20.23;;;3.53;;
3795;SDS011;1913;50.660;7.834;2023-11-19T15:18:57;29.03;;;4.47;;
3795;SDS011;1913;50.660;7.834;2023-11-19T15:21:28;26.53;;;3.63;;
3795;SDS011;1913;50.660;7.834;2023-11-19T15:23:54;24.67;;;4.43;;
3795;SDS011;1913;50.660;7.834;2023-11-19T15:26:22;22.00;;;4.03;;